createdAt,value
2022-10-20T00:01:32.015Z,4.00
2022-10-20T00:06:54.326Z,3.77
2022-10-20T00:12:16.876Z,5.47
2022-10-20T00:17:39.132Z,3.43
2022-10-20T00:23:01.487Z,4.87
2022-10-20T00:28:23.550Z,4.20
2022-10-20T00:33:46.992Z,5.33
2022-10-20T00:39:09.424Z,7.50
2022-10-20T00:44:52.867Z,3.60
2022-10-20T00:50:27.664Z,4.50
2022-10-20T00:55:52.456Z,5.00
2022-10-20T01:01:15.013Z,3.77
2022-10-20T01:06:37.308Z,4.40
2022-10-20T01:12:22.982Z,5.57
2022-10-20T01:18:09.068Z,2.80
2022-10-20T01:24:29.861Z,5.03
2022-10-20T01:30:13.720Z,4.23
2022-10-20T01:35:47.909Z,4.17
2022-10-20T01:41:18.526Z,3.80
2022-10-20T01:46:43.112Z,2.63
2022-10-20T01:52:05.451Z,3.33
2022-10-20T01:57:55.528Z,6.97
2022-10-20T02:03:32.504Z,4.13
2022-10-20T02:08:58.554Z,5.37
2022-10-20T02:14:23.018Z,3.43
2022-10-20T02:19:47.995Z,4.90
2022-10-20T02:25:13.769Z,4.20
2022-10-20T02:30:37.081Z,4.37
2022-10-20T02:36:00.021Z,8.63
2022-10-20T02:41:22.727Z,4.27
2022-10-20T02:46:45.043Z,3.67
2022-10-20T02:52:07.448Z,3.53
2022-10-20T02:57:29.669Z,5.93
2022-10-20T03:02:52.357Z,3.80
2022-10-20T03:08:15.616Z,8.00
2022-10-20T03:13:37.965Z,3.87
2022-10-20T03:19:03.922Z,3.10
2022-10-20T03:24:28.416Z,6.27
2022-10-20T03:29:50.661Z,6.60
2022-10-20T03:35:12.936Z,5.60
2022-10-20T03:40:35.596Z,4.07
2022-10-20T03:46:03.592Z,3.70
2022-10-20T03:51:26.164Z,6.13
2022-10-20T03:56:48.710Z,7.03
2022-10-20T04:02:29.843Z,5.67
2022-10-20T04:07:52.010Z,4.97
2022-10-20T04:13:14.584Z,3.90
2022-10-20T04:18:36.887Z,7.13
2022-10-20T04:23:59.780Z,7.53
2022-10-20T04:29:22.407Z,3.13
2022-10-20T04:34:44.810Z,4.40
2022-10-20T04:40:07.480Z,4.93
2022-10-20T04:45:30.270Z,6.67
2022-10-20T04:51:07.924Z,5.57
2022-10-20T04:56:30.559Z,6.00
2022-10-20T05:01:53.153Z,5.00
2022-10-20T05:07:15.535Z,6.87
2022-10-20T05:12:38.402Z,4.30
2022-10-20T05:18:00.753Z,6.43
2022-10-20T05:23:23.077Z,4.63
2022-10-20T05:28:49.144Z,7.20
2022-10-20T05:34:12.221Z,6.63
2022-10-20T05:39:34.526Z,8.07
2022-10-20T05:44:56.690Z,6.57
2022-10-20T05:50:18.976Z,11.17
2022-10-20T05:55:41.155Z,7.10
2022-10-20T06:01:06.585Z,8.73
2022-10-20T06:06:30.988Z,5.83
2022-10-20T06:11:53.767Z,5.37
2022-10-20T06:17:15.989Z,6.57
2022-10-20T06:22:39.007Z,10.27
2022-10-20T06:28:01.372Z,8.03
2022-10-20T06:33:24.304Z,7.60
2022-10-20T06:38:47.379Z,8.30
2022-10-20T06:44:09.948Z,7.33
2022-10-20T06:49:32.321Z,7.07
2022-10-20T06:54:55.044Z,7.53
2022-10-20T07:00:17.486Z,9.47
2022-10-20T07:05:39.961Z,12.47
2022-10-20T07:11:03.960Z,11.50
2022-10-20T07:16:28.969Z,10.40
2022-10-20T07:21:51.619Z,8.87
2022-10-20T07:27:13.904Z,13.70
2022-10-20T07:32:36.681Z,9.77
2022-10-20T07:37:59.214Z,13.60
2022-10-20T07:43:21.536Z,11.33
2022-10-20T07:48:43.865Z,9.63
2022-10-20T07:54:09.239Z,9.47
2022-10-20T07:59:31.802Z,10.87
2022-10-20T08:04:54.094Z,15.00
2022-10-20T08:10:16.384Z,14.83
2022-10-20T08:15:43.762Z,9.60
2022-10-20T08:21:08.875Z,9.40
2022-10-20T08:26:31.400Z,9.40
2022-10-20T08:31:54.011Z,10.57
2022-10-20T08:37:16.723Z,10.60
2022-10-20T08:42:42.216Z,8.70
2022-10-20T08:48:04.726Z,15.20
2022-10-20T08:53:28.105Z,11.53
2022-10-20T08:58:51.213Z,6.80
2022-10-20T09:04:41.109Z,10.70
2022-10-20T09:10:15.963Z,10.53
2022-10-20T09:15:39.551Z,8.67
2022-10-20T09:21:05.918Z,5.13
2022-10-20T09:26:54.176Z,9.50
2022-10-20T09:32:45.535Z,8.77
2022-10-20T09:38:29.796Z,6.10
2022-10-20T09:43:54.456Z,4.67
2022-10-20T09:49:24.093Z,6.93
2022-10-20T09:54:49.456Z,7.33
2022-10-20T10:00:36.477Z,6.73
2022-10-20T10:06:00.700Z,5.17
2022-10-20T10:11:28.768Z,4.23
2022-10-20T10:16:51.244Z,3.97
2022-10-20T10:22:13.793Z,3.50
2022-10-20T10:27:36.895Z,4.23
2022-10-20T10:33:00.466Z,5.17
2022-10-20T10:38:22.791Z,3.43
2022-10-20T10:44:15.336Z,8.33
2022-10-20T10:49:49.069Z,8.63
2022-10-20T10:55:37.186Z,5.53
2022-10-20T11:01:24.072Z,5.03
2022-10-20T11:07:14.204Z,4.67
2022-10-20T11:12:55.264Z,3.60
2022-10-20T11:18:36.251Z,3.33
2022-10-20T11:24:10.284Z,6.10
2022-10-20T11:29:35.640Z,4.10
2022-10-20T11:35:22.295Z,3.93
2022-10-20T11:41:01.734Z,5.17
2022-10-20T11:46:45.036Z,3.93
2022-10-20T11:52:28.802Z,3.53
2022-10-20T11:58:18.264Z,3.60
2022-10-20T12:03:55.669Z,3.77
2022-10-20T12:10:00.167Z,3.33
2022-10-20T12:15:28.097Z,2.50
2022-10-20T12:20:56.975Z,2.30
2022-10-20T12:26:34.184Z,4.00
2022-10-20T12:32:33.971Z,2.63
2022-10-20T12:38:04.127Z,4.87
2022-10-20T12:43:54.774Z,6.97
2022-10-20T12:49:28.966Z,5.00
2022-10-20T12:55:02.181Z,3.60
2022-10-20T13:00:27.888Z,3.70
2022-10-20T13:05:50.811Z,3.83
2022-10-20T13:11:44.853Z,2.77
2022-10-20T13:17:09.973Z,3.50
2022-10-20T13:22:49.955Z,3.93
2022-10-20T13:28:15.111Z,5.63
2022-10-20T13:34:06.041Z,2.70
2022-10-20T13:39:45.017Z,5.73
2022-10-20T13:45:20.323Z,3.73
2022-10-20T13:50:53.649Z,3.03
2022-10-20T13:56:16.312Z,3.73
2022-10-20T14:01:38.827Z,5.87
2022-10-20T14:07:16.627Z,3.23
2022-10-20T14:12:40.069Z,3.90
2022-10-20T14:18:08.360Z,4.43
2022-10-20T14:23:44.442Z,4.73
2022-10-20T14:29:06.623Z,4.53
2022-10-20T14:34:33.320Z,3.73
2022-10-20T14:39:56.257Z,4.90
2022-10-20T14:45:26.193Z,3.00
2022-10-20T14:50:49.328Z,3.27
2022-10-20T14:56:23.945Z,6.37
2022-10-20T15:02:02.204Z,3.53
2022-10-20T15:07:32.008Z,6.60
2022-10-20T15:12:55.874Z,3.73
2022-10-20T15:18:20.930Z,4.27
2022-10-20T15:23:43.457Z,4.63
2022-10-20T15:29:07.853Z,6.33
2022-10-20T15:34:30.151Z,3.93
2022-10-20T15:39:52.646Z,6.57
2022-10-20T15:45:19.956Z,4.83
2022-10-20T15:50:42.425Z,6.13
2022-10-20T15:56:05.465Z,6.23
2022-10-20T16:01:28.291Z,8.00
2022-10-20T16:06:57.845Z,7.27
2022-10-20T16:12:22.868Z,4.93
2022-10-20T16:17:46.220Z,6.23
2022-10-20T16:23:08.457Z,7.83
2022-10-20T16:28:30.946Z,10.70
2022-10-20T16:33:53.443Z,4.93
2022-10-20T16:39:17.384Z,9.27
2022-10-20T16:44:39.767Z,6.90
2022-10-20T16:50:02.171Z,8.30
2022-10-20T16:55:24.540Z,7.60
2022-10-20T17:00:57.253Z,6.03
2022-10-20T17:06:22.870Z,5.87
2022-10-20T17:11:45.179Z,9.57
2022-10-20T17:17:07.414Z,5.70
2022-10-20T17:22:30.056Z,7.33
2022-10-20T17:27:52.456Z,7.53
2022-10-20T17:33:15.011Z,9.73
2022-10-20T17:38:37.296Z,7.10
2022-10-20T17:44:01.013Z,6.90
2022-10-20T17:49:23.593Z,9.43
2022-10-20T17:54:46.087Z,5.97
2022-10-20T18:00:12.971Z,5.17
2022-10-20T18:05:38.888Z,7.97
2022-10-20T18:11:01.323Z,6.37
2022-10-20T18:16:24.396Z,7.00
2022-10-20T18:21:46.797Z,8.37
2022-10-20T18:27:09.655Z,8.73
2022-10-20T18:32:31.887Z,7.07
2022-10-20T18:37:57.640Z,6.60
2022-10-20T18:43:20.100Z,6.03
2022-10-20T18:48:43.278Z,6.33
2022-10-20T18:54:07.933Z,7.50
2022-10-20T18:59:30.338Z,5.13
2022-10-20T19:04:52.472Z,5.97
2022-10-20T19:10:14.443Z,8.07
2022-10-20T19:15:40.739Z,6.77
2022-10-20T19:21:06.273Z,6.63
2022-10-20T19:26:38.320Z,6.17
2022-10-20T19:32:02.350Z,8.23
2022-10-20T19:37:24.724Z,6.20
2022-10-20T19:42:46.873Z,7.20
2022-10-20T19:48:09.100Z,7.63
2022-10-20T19:53:31.615Z,8.87
2022-10-20T19:58:53.825Z,8.27
2022-10-20T20:04:16.423Z,10.20
2022-10-20T20:09:38.519Z,11.37
2022-10-20T20:15:00.700Z,8.53
2022-10-20T20:20:23.071Z,7.50
2022-10-20T20:25:46.359Z,8.77
2022-10-20T20:31:11.768Z,9.37
2022-10-20T20:36:34.336Z,5.30
2022-10-20T20:41:56.627Z,7.80
2022-10-20T20:47:18.880Z,6.37
2022-10-20T20:52:41.403Z,9.50
2022-10-20T20:58:03.513Z,5.90
2022-10-20T21:03:26.374Z,6.90
2022-10-20T21:08:49.622Z,5.53
2022-10-20T21:14:11.895Z,8.87
2022-10-20T21:19:34.408Z,7.87
2022-10-20T21:24:56.785Z,7.33
2022-10-20T21:30:19.019Z,9.40
2022-10-20T21:35:41.594Z,6.47
2022-10-20T21:41:10.550Z,13.43
2022-10-20T21:46:35.954Z,8.17
2022-10-20T21:51:58.553Z,11.70
2022-10-20T21:57:20.724Z,9.97
2022-10-20T22:02:43.192Z,10.63
2022-10-20T22:08:05.607Z,9.47
2022-10-20T22:13:28.071Z,10.20
2022-10-20T22:18:56.327Z,10.83
2022-10-20T22:24:19.819Z,9.23
2022-10-20T22:29:42.057Z,9.70
2022-10-20T22:35:04.888Z,13.67
2022-10-20T22:40:27.200Z,12.70
2022-10-20T22:45:49.271Z,8.77
2022-10-20T22:51:11.972Z,10.23
2022-10-20T22:56:46.578Z,11.43
2022-10-20T23:02:08.975Z,9.83
2022-10-20T23:07:31.243Z,9.37
2022-10-20T23:12:53.592Z,11.00
2022-10-20T23:18:15.711Z,10.50
2022-10-20T23:23:38.476Z,11.27
2022-10-20T23:29:01.031Z,8.20
2022-10-20T23:34:24.095Z,11.33
2022-10-20T23:39:46.561Z,10.87
2022-10-20T23:45:09.897Z,12.83
2022-10-20T23:50:32.385Z,12.00
2022-10-20T23:55:54.771Z,11.80
